Time;durP1;ratioP1;P1;durP2;ratioP2;P2;SDS_P1;SDS_P2;PMS_P1;PMS_P2;Temp;Humidity;BMP_temperature;BMP_pressure;BME280_temperature;BME280_humidity;BME280_pressure;Samples;Min_cycle;Max_cycle;Signal;HPM_P1;HPM_P2
2022/07/05 00:00:51;;;;;;;1.97;1.30;;;;;;;17.75;100.00;96638.19;5010332;28;102274;-62
2022/07/05 00:03:18;;;;;;;1.37;1.27;;;;;;;17.66;100.00;96631.88;5009908;28;102660;-62
2022/07/05 00:05:46;;;;;;;0.90;0.90;;;;;;;17.65;100.00;96625.66;5010284;28;101838;-62
2022/07/05 00:08:13;;;;;;;8.47;1.07;;;;;;;17.57;100.00;96628.19;5008769;28;105567;-62
2022/07/05 00:10:41;;;;;;;2.60;0.87;;;;;;;17.56;100.00;96615.84;5012595;28;102585;-63
2022/07/05 00:13:10;;;;;;;1.00;1.00;;;;;;;17.52;100.00;96609.44;5009884;28;102788;-62
2022/07/05 00:15:37;;;;;;;1.40;1.20;;;;;;;17.47;100.00;96612.19;5009583;28;102688;-62
2022/07/05 00:18:05;;;;;;;1.33;1.20;;;;;;;17.42;100.00;96605.00;5010061;28;101953;-62
2022/07/05 00:20:38;;;;;;;2.13;1.20;;;;;;;17.40;100.00;96612.56;5010107;28;102554;-62
2022/07/05 00:23:05;;;;;;;2.20;1.23;;;;;;;17.46;100.00;96605.22;5009553;28;101776;-62
2022/07/05 00:25:42;;;;;;;1.03;1.03;;;;;;;17.37;100.00;96601.53;5010243;28;101869;-62
2022/07/05 00:28:13;;;;;;;2.30;1.20;;;;;;;17.40;100.00;96601.00;5010242;28;102443;-62
2022/07/05 00:30:40;;;;;;;1.37;1.30;;;;;;;17.40;100.00;96612.56;5007870;28;105926;-63
2022/07/05 00:33:08;;;;;;;4.37;1.20;;;;;;;17.43;100.00;96617.34;5013365;28;101906;-62
2022/07/05 00:35:35;;;;;;;2.07;1.17;;;;;;;17.37;100.00;96620.34;5007570;28;105485;-62
2022/07/05 00:38:02;;;;;;;2.00;1.30;;;;;;;17.39;100.00;96607.47;5008723;28;102024;-63
2022/07/05 00:40:29;;;;;;;1.83;1.53;;;;;;;17.37;100.00;96617.66;5008492;28;105369;-62
2022/07/05 00:42:56;;;;;;;2.27;1.90;;;;;;;17.35;100.00;96614.47;5007609;28;105441;-62
2022/07/05 00:48:53;;;;;;;2.40;2.20;;;;;;;17.39;100.00;96610.94;5007917;28;105082;-62
2022/07/05 00:51:21;;;;;;;3.43;2.30;;;;;;;17.42;100.00;96614.94;5007987;28;105896;-62
2022/07/05 00:53:48;;;;;;;3.53;2.80;;;;;;;17.43;100.00;96609.28;5008299;28;102180;-62
2022/07/05 00:56:29;;;;;;;3.47;3.10;;;;;;;17.48;100.00;96609.22;5010851;28;103664;-62
2022/07/05 00:58:56;;;;;;;3.50;3.20;;;;;;;17.47;100.00;96613.00;4997911;28;101759;-62
2022/07/05 01:01:23;;;;;;;5.47;4.20;;;;;;;17.52;100.00;96614.81;5008491;28;105261;-62
2022/07/05 01:03:52;;;;;;;4.03;3.60;;;;;;;17.54;100.00;96618.03;5007529;28;105223;-62
2022/07/05 01:06:44;;;;;;;7.20;4.53;;;;;;;17.57;100.00;96620.13;5007973;28;102170;-62
2022/07/05 01:09:13;;;;;;;5.73;3.87;;;;;;;17.47;100.00;96612.19;5008019;28;104990;-62
2022/07/05 01:11:41;;;;;;;5.00;3.80;;;;;;;17.47;100.00;96618.38;5006906;28;105473;-62
2022/07/05 01:14:11;;;;;;;5.07;4.13;;;;;;;17.50;100.00;96623.16;5008222;28;102011;-62
2022/07/05 01:16:39;;;;;;;4.30;3.90;;;;;;;17.48;100.00;96621.84;5008043;28;104865;-62
2022/07/05 01:19:32;;;;;;;3.93;3.63;;;;;;;17.54;100.00;96623.41;5012571;28;102057;-62
2022/07/05 01:22:03;;;;;;;2.80;2.57;;;;;;;17.49;100.00;96618.88;5011317;28;104979;-62
2022/07/05 01:24:33;;;;;;;2.40;2.30;;;;;;;17.55;100.00;96619.63;5010760;28;104123;-62
2022/07/05 01:27:00;;;;;;;3.17;2.20;;;;;;;17.50;100.00;96633.13;5011208;28;102051;-62
2022/07/05 01:29:28;;;;;;;2.33;2.10;;;;;;;17.57;100.00;96631.72;5011114;28;105517;-62
2022/07/05 01:31:55;;;;;;;2.13;2.00;;;;;;;17.49;100.00;96620.78;5010595;28;103961;-62
2022/07/05 01:34:22;;;;;;;2.30;2.10;;;;;;;17.52;100.00;96620.19;5011215;28;102489;-62
2022/07/05 01:36:52;;;;;;;3.00;2.73;;;;;;;17.54;100.00;96618.03;5010994;28;105499;-62
2022/07/05 01:39:20;;;;;;;3.57;3.23;;;;;;;17.47;100.00;96614.88;5015514;28;102625;-62
2022/07/05 01:41:50;;;;;;;5.27;3.97;;;;;;;17.39;100.00;96619.00;5012394;28;102369;-62
2022/07/05 01:44:16;;;;;;;3.87;3.40;;;;;;;17.40;100.00;96627.88;5010620;28;105757;-62
2022/07/05 01:47:06;;;;;;;3.30;3.00;;;;;;;17.39;100.00;96621.69;5012395;28;101841;-62
2022/07/05 01:49:58;;;;;;;2.77;2.40;;;;;;;17.38;100.00;96630.03;5011034;28;105138;-62
2022/07/05 01:52:26;;;;;;;2.60;2.40;;;;;;;17.40;100.00;96634.06;5010271;28;106170;-62
2022/07/05 01:55:07;;;;;;;2.60;2.40;;;;;;;17.43;100.00;96620.03;5010852;28;101896;-62
2022/07/05 01:57:36;;;;;;;5.90;2.63;;;;;;;17.39;100.00;96623.59;5011002;28;105306;-62
2022/07/05 02:00:03;;;;;;;3.00;2.80;;;;;;;17.39;100.00;96619.00;5011242;28;102607;-62
2022/07/05 02:02:42;;;;;;;2.67;2.47;;;;;;;17.49;100.00;96621.56;5012464;28;101755;-62
2022/07/05 02:08:32;;;;;;;3.03;2.70;;;;;;;17.45;100.00;96625.13;5010705;28;101860;-62
2022/07/05 02:10:59;;;;;;;2.60;2.20;;;;;;;17.40;100.00;96619.81;5010150;28;105402;-62
2022/07/05 02:13:28;;;;;;;2.80;2.03;;;;;;;17.43;100.00;96619.25;5009868;28;105460;-62
2022/07/05 02:16:01;;;;;;;2.43;1.80;;;;;;;17.38;100.00;96619.28;5010664;28;102065;-62
2022/07/05 02:18:28;;;;;;;2.87;2.20;;;;;;;17.38;100.00;96614.72;5010436;28;104782;-62
2022/07/05 02:20:56;;;;;;;2.30;2.10;;;;;;;17.41;100.00;96622.22;4990005;28;105683;-62
2022/07/05 02:23:24;;;;;;;2.10;1.90;;;;;;;17.39;100.00;96610.16;5003480;28;101918;-62
2022/07/05 02:26:09;;;;;;;2.40;1.90;;;;;;;17.34;100.00;96612.88;5013537;28;103556;-62
2022/07/05 02:28:41;;;;;;;2.40;1.93;;;;;;;17.38;100.00;96617.41;5010148;28;102077;-62
2022/07/05 02:31:09;;;;;;;2.37;1.70;;;;;;;17.41;100.00;96624.09;5010550;28;105379;-62
2022/07/05 02:33:37;;;;;;;1.83;1.73;;;;;;;17.40;100.00;96628.69;5009451;28;105887;-62
2022/07/05 02:39:28;;;;;;;2.67;1.87;;;;;;;17.34;100.00;96634.38;4990494;28;105369;-62
2022/07/05 02:41:58;;;;;;;3.53;2.03;;;;;;;17.32;100.00;96636.53;5001990;28;105425;-62
2022/07/05 02:44:28;;;;;;;3.07;2.17;;;;;;;17.37;100.00;96639.16;4990361;28;102095;-62
2022/07/05 02:46:55;;;;;;;2.20;2.00;;;;;;;17.31;100.00;96633.06;5001700;28;105160;-62
2022/07/05 02:49:26;;;;;;;1.80;1.70;;;;;;;17.32;100.00;96636.53;5013207;28;105717;-62
2022/07/05 02:51:54;;;;;;;2.97;1.90;;;;;;;17.30;100.00;96633.34;5009982;28;104821;-63
2022/07/05 02:54:22;;;;;;;1.43;1.40;;;;;;;17.32;100.00;96636.53;5010738;28;102582;-62
2022/07/05 02:56:55;;;;;;;1.70;1.60;;;;;;;17.32;100.00;96637.34;5009637;28;102072;-63
2022/07/05 02:59:23;;;;;;;3.43;1.63;;;;;;;17.37;100.00;96629.22;5010283;28;104888;-62
2022/07/05 03:01:52;;;;;;;2.30;1.53;;;;;;;17.37;100.00;96634.59;5009170;28;105602;-62
2022/07/05 03:04:20;;;;;;;1.50;1.40;;;;;;;17.37;100.00;96634.59;5009746;28;102103;-62
2022/07/05 03:06:54;;;;;;;2.57;1.37;;;;;;;17.36;100.00;96633.00;5009591;28;105943;-62
2022/07/05 03:09:26;;;;;;;2.97;1.63;;;;;;;17.40;100.00;96635.94;5009370;28;105133;-62
2022/07/05 03:11:53;;;;;;;2.57;1.50;;;;;;;17.46;100.00;96642.88;5012827;28;102014;-62
2022/07/05 03:14:21;;;;;;;1.60;1.43;;;;;;;17.38;100.00;96638.91;5008992;28;105605;-62
2022/07/05 03:17:01;;;;;;;2.87;1.90;;;;;;;17.39;100.00;96629.75;5009479;28;101867;-62
2022/07/05 03:19:31;;;;;;;1.97;1.60;;;;;;;17.42;100.00;96637.25;5009754;28;105240;-62
2022/07/05 03:21:58;;;;;;;1.70;1.60;;;;;;;17.42;100.00;96631.88;5008720;28;105994;-62
2022/07/05 03:24:25;;;;;;;2.03;1.57;;;;;;;17.47;100.00;96633.69;5009542;28;101996;-62
2022/07/05 03:26:53;;;;;;;2.73;1.80;;;;;;;17.45;100.00;96630.50;5009272;28;105042;-62
2022/07/05 03:29:21;;;;;;;2.43;1.73;;;;;;;17.48;100.00;96635.31;5008660;28;105552;-62
2022/07/05 03:31:47;;;;;;;2.20;1.90;;;;;;;17.48;100.00;96638.00;5014203;28;101905;-62
2022/07/05 03:34:16;;;;;;;2.80;1.73;;;;;;;17.45;100.00;96630.50;5008503;28;106127;-62
2022/07/05 03:37:26;;;;;;;2.87;2.10;;;;;;;17.45;100.00;96630.50;5009181;28;101961;-62
2022/07/05 03:39:53;;;;;;;1.83;1.70;;;;;;;17.33;100.00;96627.41;5009289;28;103538;-62
2022/07/05 03:42:20;;;;;;;5.80;1.77;;;;;;;17.26;100.00;96622.38;5007809;28;105444;-62
2022/07/05 03:45:06;;;;;;;3.27;1.90;;;;;;;17.26;100.00;96637.69;5009430;28;101986;-62
2022/07/05 03:47:35;;;;;;;1.70;1.60;;;;;;;17.25;100.00;96633.41;5009228;28;104778;-62
2022/07/05 03:50:14;;;;;;;1.90;1.70;;;;;;;17.29;100.00;96643.31;5008421;28;105318;-62
2022/07/05 03:52:42;;;;;;;2.00;1.90;;;;;;;17.30;100.00;96644.09;5008974;28;101843;-62
2022/07/05 03:55:10;;;;;;;1.90;1.80;;;;;;;17.27;100.00;96647.38;5011864;28;105112;-62
2022/07/05 03:57:37;;;;;;;2.70;1.87;;;;;;;17.25;100.00;96641.47;5010025;28;102110;-62
2022/07/05 04:00:06;;;;;;;1.63;1.60;;;;;;;17.30;100.00;96652.97;5008762;28;105263;-62
2022/07/05 04:02:40;;;;;;;1.90;1.80;;;;;;;17.26;100.00;96649.25;5006453;28;102370;-62
2022/07/05 04:05:54;;;;;;;2.63;1.97;;;;;;;17.28;100.00;96655.13;5008774;28;101843;-62
2022/07/05 04:08:23;;;;;;;2.03;1.93;;;;;;;17.35;100.00;96647.53;5009827;28;102237;-62
2022/07/05 04:10:50;;;;;;;2.97;2.10;;;;;;;17.37;100.00;96648.03;5007702;28;105946;-62
2022/07/05 04:13:20;;;;;;;3.10;1.93;;;;;;;17.42;100.00;96650.72;5009046;28;101991;-62
2022/07/05 04:16:25;;;;;;;2.00;1.80;;;;;;;17.43;100.00;96649.63;5008586;28;105486;-62
2022/07/05 04:19:24;;;;;;;2.13;1.90;;;;;;;17.39;100.00;96647.78;5011514;28;105809;-62
2022/07/05 04:21:53;;;;;;;2.07;1.70;;;;;;;17.44;100.00;96653.13;5008556;28;105244;-62
2022/07/05 04:24:22;;;;;;;2.00;1.80;;;;;;;17.43;100.00;96656.91;5008358;28;105071;-62
2022/07/05 04:27:06;;;;;;;3.33;3.03;;;;;;;17.39;100.00;96664.72;5008789;28;101745;-62
2022/07/05 04:29:33;;;;;;;4.37;3.03;;;;;;;17.43;100.00;96662.28;4999216;28;105350;-62
2022/07/05 04:32:00;;;;;;;8.53;4.30;;;;;;;17.43;100.00;96657.69;5007916;28;105202;-62
2022/07/05 04:34:27;;;;;;;4.20;2.60;;;;;;;17.41;100.00;96661.75;5008502;28;101950;-62
2022/07/05 04:36:54;;;;;;;3.90;2.17;;;;;;;17.41;100.00;96661.75;5008348;28;105748;-62
2022/07/05 04:39:23;;;;;;;2.43;1.73;;;;;;;17.47;100.00;96664.09;5007566;28;105974;-62
2022/07/05 04:42:00;;;;;;;2.33;2.10;;;;;;;17.56;100.00;96664.25;5011654;28;102180;-62
2022/07/05 04:44:27;;;;;;;2.10;1.97;;;;;;;17.68;100.00;96665.47;5007581;28;105820;-62
2022/07/05 04:47:55;;;;;;;2.30;2.10;;;;;;;17.67;100.00;96668.44;5039593;27;101874;-62
2022/07/05 04:50:34;;;;;;;2.17;2.07;;;;;;;17.73;100.00;96667.28;5029787;27;105797;-63
2022/07/05 04:53:01;;;;;;;2.50;2.30;;;;;;;17.68;100.00;96662.75;5043738;27;102031;-63
2022/07/05 04:55:35;;;;;;;2.20;2.07;;;;;;;17.95;100.00;96667.53;5030204;27;105195;-62
2022/07/05 04:58:02;;;;;;;2.30;2.10;;;;;;;17.91;100.00;96666.50;5026994;28;102686;-62
2022/07/05 05:00:29;;;;;;;2.23;2.10;;;;;;;18.06;100.00;96668.97;5027134;28;101933;-62
2022/07/05 05:02:58;;;;;;;3.43;2.50;;;;;;;18.22;100.00;96668.50;5027178;28;102975;-62
2022/07/05 05:05:44;;;;;;;2.40;2.00;;;;;;;18.26;100.00;96658.72;5026594;28;103115;-62
2022/07/05 05:08:11;;;;;;;2.53;2.07;;;;;;;18.33;100.00;96661.88;5030804;28;101688;-62
2022/07/05 05:10:38;;;;;;;2.43;1.93;;;;;;;18.45;100.00;96656.03;5045396;27;102694;-62
2022/07/05 05:13:05;;;;;;;2.47;2.20;;;;;;;18.49;100.00;96651.69;5047105;27;101954;-62
2022/07/05 05:15:39;;;;;;;4.97;2.00;;;;;;;18.64;100.00;96654.13;5047140;27;103916;-62
2022/07/05 05:18:07;;;;;;;2.73;2.17;;;;;;;18.58;100.00;96655.31;5046578;27;102604;-63
2022/07/05 05:20:37;;;;;;;3.33;2.07;;;;;;;18.86;100.00;96662.38;5046820;27;101886;-62
2022/07/05 05:23:04;;;;;;;2.87;2.13;;;;;;;18.77;100.00;96653.34;5029083;27;105499;-62
2022/07/05 05:25:34;;;;;;;1.70;1.60;;;;;;;18.92;100.00;96653.88;5046477;27;102522;-62
2022/07/05 05:28:02;;;;;;;2.37;1.90;;;;;;;18.71;100.00;96654.53;5034624;27;101871;-63
2022/07/05 05:30:29;;;;;;;2.07;1.83;;;;;;;18.64;100.00;96646.81;5048391;27;105556;-62
2022/07/05 05:32:56;;;;;;;2.63;1.93;;;;;;;18.64;100.00;96654.13;5020599;27;101975;-63
2022/07/05 05:35:28;;;;;;;2.67;1.63;;;;;;;18.63;100.00;96650.63;5045511;27;105817;-62
2022/07/05 05:37:56;;;;;;;2.10;1.90;;;;;;;18.91;100.00;96649.59;5024988;27;105340;-62
2022/07/05 05:40:25;;;;;;;2.70;1.93;;;;;;;18.94;100.00;96662.50;5025281;28;101751;-63
2022/07/05 05:42:54;;;;;;;2.83;1.73;;;;;;;18.76;100.00;96651.78;5034228;27;102325;-62
2022/07/05 05:45:39;;;;;;;2.83;1.80;;;;;;;18.67;100.00;96643.56;5042057;27;105367;-63
2022/07/05 05:48:07;;;;;;;1.70;1.60;;;;;;;18.72;100.00;96645.38;4988669;28;101993;-62
2022/07/05 05:50:48;;;;;;;2.23;2.00;;;;;;;18.68;100.00;96638.97;5006356;28;102360;-63
2022/07/05 05:53:16;;;;;;;2.17;1.83;;;;;;;18.77;100.00;96640.69;4997332;28;105800;-63
2022/07/05 05:59:05;;;;;;;1.83;1.73;;;;;;;19.40;100.00;96657.09;4974214;28;103172;-63
2022/07/05 06:01:33;;;;;;;2.40;1.83;;;;;;;19.45;100.00;96644.28;4973088;28;102039;-63
2022/07/05 06:04:00;;;;;;;1.67;1.40;;;;;;;19.55;100.00;96646.00;4984303;28;102357;-63
2022/07/05 06:07:23;;;;;;;1.60;1.60;;;;;;;19.51;100.00;96645.78;4978162;28;103456;-63
2022/07/05 06:09:51;;;;;;;1.90;1.70;;;;;;;19.86;100.00;96644.28;4990504;28;101922;-62
2022/07/05 06:12:18;;;;;;;1.67;1.50;;;;;;;19.83;100.00;96642.19;4983388;28;101965;-63
2022/07/05 06:14:52;;;;;;;2.50;1.60;;;;;;;20.04;100.00;96651.41;4990846;28;103765;-63
2022/07/05 06:17:19;;;;;;;3.03;1.77;;;;;;;20.22;100.00;96653.22;4986369;28;103156;-63
2022/07/05 06:19:47;;;;;;;1.80;1.70;;;;;;;20.34;100.00;96645.38;4967969;28;106333;-63
2022/07/05 06:22:14;;;;;;;1.83;1.53;;;;;;;20.46;100.00;96648.34;4953857;28;101932;-63
2022/07/05 06:24:41;;;;;;;2.00;1.80;;;;;;;20.65;100.00;96648.97;4992293;28;102388;-62
2022/07/05 06:27:10;;;;;;;1.93;1.83;;;;;;;20.70;100.00;96649.63;4990422;28;104987;-62
2022/07/05 06:29:37;;;;;;;2.07;1.60;;;;;;;20.53;100.00;96649.50;4992218;28;102200;-62
2022/07/05 06:32:05;;;;;;;1.47;1.30;;;;;;;21.04;100.00;96644.44;4992536;28;102341;-63
2022/07/05 06:34:32;;;;;;;1.60;1.50;;;;;;;21.08;100.00;96650.84;4968014;28;105849;-63
2022/07/05 06:36:59;;;;;;;1.70;1.60;;;;;;;20.96;100.00;96647.13;4951611;28;102041;-63
2022/07/05 06:39:26;;;;;;;2.13;1.43;;;;;;;20.95;100.00;96650.94;4990842;28;102541;-62
2022/07/05 06:41:54;;;;;;;1.50;1.43;;;;;;;21.09;100.00;96640.84;4992257;28;101939;-62
2022/07/05 06:44:22;;;;;;;1.40;1.30;;;;;;;21.23;100.00;96649.66;4974867;28;102538;-63
2022/07/05 06:46:49;;;;;;;1.47;1.20;;;;;;;21.53;100.00;96652.31;4990011;28;103238;-62
2022/07/05 06:49:18;;;;;;;1.93;1.30;;;;;;;21.58;100.00;96645.97;5012802;28;102504;-61
2022/07/05 06:51:45;;;;;;;1.97;1.00;;;;;;;21.71;100.00;96654.03;5029485;28;105176;-62
2022/07/05 06:54:12;;;;;;;1.83;1.10;;;;;;;21.54;100.00;96653.13;5025351;28;101946;-63
2022/07/05 06:57:06;;;;;;;1.47;1.10;;;;;;;21.33;100.00;96643.97;5027563;28;102015;-63
2022/07/05 06:59:35;;;;;;;1.40;1.17;;;;;;;21.54;100.00;96648.53;5028171;28;105652;-62
2022/07/05 07:02:02;;;;;;;2.73;1.00;;;;;;;21.47;100.00;96652.78;5018091;28;101999;-62
2022/07/05 07:04:29;;;;;;;2.20;1.10;;;;;;;21.96;100.00;96666.03;5030763;28;103452;-63
2022/07/05 07:06:56;;;;;;;1.17;1.10;;;;;;;21.85;100.00;96664.72;5016130;28;102589;-63
2022/07/05 07:09:22;;;;;;;1.30;1.20;;;;;;;21.63;100.00;96662.88;5030743;27;101781;-63
2022/07/05 07:11:50;;;;;;;1.60;1.10;;;;;;;21.99;100.00;96660.78;5024635;28;105509;-63
2022/07/05 07:14:18;;;;;;;1.67;1.10;;;;;;;21.92;100.00;96665.88;5011070;28;102717;-63
2022/07/05 07:20:15;;;;;;;1.53;1.20;;;;;;;22.34;100.00;96667.03;5014481;28;105776;-64
2022/07/05 07:22:42;;;;;;;1.50;1.40;;;;;;;22.07;100.00;96665.41;5034485;28;103123;-62
2022/07/05 07:25:17;;;;;;;1.37;1.00;;;;;;;22.06;100.00;96673.88;5025651;28;103827;-62
2022/07/05 07:27:44;;;;;;;1.10;1.00;;;;;;;22.07;100.00;96664.63;5020620;28;104026;-62
2022/07/05 07:30:14;;;;;;;0.97;0.97;;;;;;;22.29;100.00;96661.78;5027176;28;101926;-62
2022/07/05 07:32:42;;;;;;;1.20;1.20;;;;;;;22.21;100.00;96657.94;5022528;28;102413;-61
2022/07/05 07:35:48;;;;;;;1.20;1.10;;;;;;;22.59;100.00;96660.84;5027604;28;106086;-62
2022/07/05 07:38:15;;;;;;;1.53;1.00;;;;;;;22.76;100.00;96658.09;5018967;28;101801;-64
2022/07/05 07:40:42;;;;;;;1.60;1.07;;;;;;;22.65;100.00;96662.25;5021124;28;102403;-62
2022/07/05 07:43:10;;;;;;;1.30;1.20;;;;;;;22.81;100.00;96652.53;5022207;28;105806;-62
2022/07/05 07:45:38;;;;;;;1.87;1.07;;;;;;;22.52;100.00;96657.81;5024028;28;102449;-62
2022/07/05 07:48:05;;;;;;;1.40;1.10;;;;;;;22.10;100.00;96663.97;5027082;28;102938;-62
2022/07/05 07:50:32;;;;;;;1.93;1.10;;;;;;;21.89;100.00;96665.66;5020773;28;102036;-62
2022/07/05 07:53:02;;;;;;;1.23;0.97;;;;;;;21.94;100.00;96668.22;5015573;28;105220;-62
2022/07/05 07:55:39;;;;;;;1.83;0.90;;;;;;;21.86;100.00;96674.44;5005878;28;105029;-62
2022/07/05 07:58:07;;;;;;;1.37;1.10;;;;;;;21.74;100.00;96671.53;5025345;28;101912;-62
2022/07/05 08:00:34;;;;;;;1.60;1.10;;;;;;;21.69;100.00;96672.47;5030007;28;105175;-61
2022/07/05 08:03:01;;;;;;;1.80;1.13;;;;;;;22.31;100.00;96673.06;5016263;28;105295;-62
2022/07/05 08:05:43;;;;;;;1.40;1.30;;;;;;;22.40;100.00;96673.91;5015473;28;103088;-62
2022/07/05 08:08:12;;;;;;;1.90;1.20;;;;;;;22.52;100.00;96671.38;5032352;28;105809;-62
2022/07/05 08:10:39;;;;;;;0.90;0.90;;;;;;;22.74;100.00;96679.34;5029335;28;102034;-64
2022/07/05 08:13:06;;;;;;;1.40;1.10;;;;;;;22.55;100.00;96674.25;5026939;28;104344;-61
2022/07/05 08:15:43;;;;;;;1.40;1.30;;;;;;;22.60;100.00;96665.13;5008912;28;105765;-61
2022/07/05 08:23:40;;;;;;;3.00;1.30;;;;;;;22.59;100.00;96675.19;5008797;28;104021;-61
2022/07/05 08:26:07;;;;;;;1.20;1.07;;;;;;;22.47;100.00;96676.94;5009222;28;101824;-61
2022/07/05 08:28:35;;;;;;;2.40;1.40;;;;;;;22.26;100.00;96670.53;5009342;28;104147;-61
2022/07/05 08:31:02;;;;;;;2.77;1.40;;;;;;;22.08;100.00;96677.03;5020317;28;105700;-61
2022/07/05 08:33:29;;;;;;;2.10;1.40;;;;;;;22.25;100.00;96679.78;5030743;28;102495;-60
2022/07/05 08:36:41;;;;;;;1.53;1.10;;;;;;;22.32;100.00;96683.59;5017744;28;102619;-61
2022/07/05 08:39:10;;;;;;;2.20;1.43;;;;;;;22.56;100.00;96681.25;4989064;28;101937;-59
2022/07/05 08:41:39;;;;;;;1.40;1.30;;;;;;;22.55;100.00;96684.31;4989148;28;105486;-61
2022/07/05 08:44:06;;;;;;;1.87;1.23;;;;;;;22.30;100.00;96687.75;4989851;28;102682;-62
2022/07/05 08:46:37;;;;;;;2.40;1.73;;;;;;;22.33;100.00;96689.81;4983726;28;101910;-61
2022/07/05 08:49:28;;;;;;;2.47;1.57;;;;;;;22.49;100.00;96690.97;4989021;28;103783;-62
2022/07/05 08:51:56;;;;;;;1.70;1.30;;;;;;;22.54;100.00;96690.81;5028421;28;107302;-61
2022/07/05 08:54:26;;;;;;;2.37;1.70;;;;;;;22.60;100.00;96694.97;5033830;28;101867;-62
2022/07/05 08:57:07;;;;;;;1.50;1.40;;;;;;;23.15;100.00;96691.25;5029650;28;102595;-61
2022/07/05 08:59:34;;;;;;;1.60;1.50;;;;;;;23.66;100.00;96693.03;5030349;28;101724;-62
2022/07/05 09:02:03;;;;;;;2.60;1.50;;;;;;;23.43;100.00;96694.41;5010220;28;102475;-61
2022/07/05 09:04:34;;;;;;;1.63;1.50;;;;;;;24.06;100.00;96686.16;5009350;28;102627;-60
2022/07/05 09:07:07;;;;;;;1.60;1.50;;;;;;;24.36;100.00;96695.88;5010234;28;101970;-61
2022/07/05 09:09:42;;;;;;;2.63;1.50;;;;;;;23.91;100.00;96690.22;5010039;28;102559;-62
2022/07/05 09:12:09;;;;;;;2.07;1.50;;;;;;;24.26;100.00;96688.13;5008204;28;105923;-61
2022/07/05 09:14:37;;;;;;;3.20;1.43;;;;;;;24.24;100.00;96684.94;5013454;28;101860;-60
2022/07/05 09:17:05;;;;;;;1.47;1.37;;;;;;;23.80;100.00;96680.81;5009410;28;102801;-60
2022/07/05 09:22:56;;;;;;;1.23;1.20;;;;;;;23.26;100.00;96683.59;5030077;28;102838;-62
2022/07/05 09:25:27;;;;;;;1.20;1.20;;;;;;;23.18;100.00;96687.94;5028631;28;103465;-63
2022/07/05 09:27:56;;;;;;;2.40;1.60;;;;;;;22.82;100.00;96683.94;5002823;28;103074;-62
2022/07/05 09:30:32;;;;;;;1.60;1.30;;;;;;;22.47;100.00;96683.19;5019203;28;102474;-61
2022/07/05 09:33:05;;;;;;;1.97;1.70;;;;;;;22.53;100.00;96692.75;5009758;27;102570;-62
2022/07/05 09:35:41;;;;;;;1.90;1.63;;;;;;;23.30;100.00;96685.34;5013393;28;102001;-64
2022/07/05 09:38:19;;;;;;;1.90;1.80;;;;;;;23.90;100.00;96682.41;5014205;28;105844;-62
2022/07/05 09:40:49;;;;;;;1.73;1.53;;;;;;;24.79;100.00;96685.50;5013224;28;101975;-62
2022/07/05 09:43:18;;;;;;;3.70;1.77;;;;;;;23.92;100.00;96688.31;5012997;28;102879;-62
2022/07/05 09:45:58;;;;;;;2.17;1.90;;;;;;;24.03;100.00;96689.53;5011462;28;104718;-62
2022/07/05 09:48:26;;;;;;;2.17;1.60;;;;;;;24.43;100.00;96680.63;5011158;28;101910;-61
2022/07/05 09:50:53;;;;;;;2.20;1.83;;;;;;;23.94;100.00;96689.59;5013173;28;103129;-62
2022/07/05 09:53:21;;;;;;;1.57;1.47;;;;;;;23.92;100.00;96691.03;5010758;28;103987;-62
2022/07/05 09:56:05;;;;;;;1.80;1.70;;;;;;;24.03;100.00;96684.09;5011510;28;102089;-62
2022/07/05 09:58:32;;;;;;;2.77;1.33;;;;;;;23.57;100.00;96684.13;5009619;28;104020;-62
2022/07/05 10:00:59;;;;;;;2.77;1.50;;;;;;;23.65;100.00;96688.72;5010728;28;105894;-62
2022/07/05 10:03:26;;;;;;;1.67;1.43;;;;;;;23.11;100.00;96692.22;4991273;28;105728;-62
2022/07/05 10:09:16;;;;;;;1.50;1.40;;;;;;;23.24;100.00;96686.63;5009100;28;102012;-62
2022/07/05 10:11:46;;;;;;;2.00;1.40;;;;;;;23.21;100.00;96691.91;5031490;28;104273;-61
2022/07/05 10:14:17;;;;;;;1.63;1.30;;;;;;;23.24;100.00;96696.69;5031879;27;103151;-62
2022/07/05 10:16:59;;;;;;;2.30;1.30;;;;;;;23.02;100.00;96694.13;5031188;28;102116;-62
2022/07/05 10:19:33;;;;;;;1.60;1.30;;;;;;;23.06;100.00;96700.53;5020813;28;104016;-62
2022/07/05 10:22:00;;;;;;;1.33;1.20;;;;;;;23.16;100.00;96702.91;5010425;28;104454;-62
2022/07/05 10:24:31;;;;;;;1.33;1.23;;;;;;;23.31;100.00;96699.69;5014524;28;102265;-62
2022/07/05 10:27:01;;;;;;;2.33;1.23;;;;;;;23.41;100.00;96708.28;5010592;28;105513;-62
2022/07/05 10:29:30;;;;;;;3.27;1.30;;;;;;;23.33;100.00;96703.66;5011482;28;102043;-62
2022/07/05 10:31:58;;;;;;;1.30;1.20;;;;;;;23.27;100.00;96701.47;5028413;28;105223;-62
2022/07/05 10:34:26;;;;;;;1.30;1.20;;;;;;;23.27;100.00;96696.03;5019271;28;103084;-62
2022/07/05 10:36:53;;;;;;;3.30;1.60;;;;;;;23.54;100.00;96695.66;5032127;28;101922;-62
2022/07/05 10:39:25;;;;;;;3.30;1.60;;;;;;;23.55;100.00;96697.22;5030895;28;102337;-62
2022/07/05 10:41:53;;;;;;;1.67;1.60;;;;;;;23.40;100.00;96698.56;5031604;28;102750;-62
2022/07/05 10:44:32;;;;;;;2.20;1.30;;;;;;;23.48;100.00;96697.72;5025390;28;101895;-62
2022/07/05 10:47:10;;;;;;;3.23;1.60;;;;;;;23.52;100.00;96708.72;5014944;28;102487;-62
2022/07/05 10:50:01;;;;;;;2.80;1.60;;;;;;;23.06;100.00;96705.94;5002652;28;101829;-62
2022/07/05 10:52:28;;;;;;;2.63;1.50;;;;;;;22.99;100.00;96713.78;5024654;27;102352;-62
2022/07/05 10:55:41;;;;;;;1.67;1.57;;;;;;;22.93;100.00;96713.13;5021399;28;102753;-62
2022/07/05 10:58:29;;;;;;;2.17;1.60;;;;;;;22.68;100.00;96715.88;5032177;28;101875;-62
2022/07/05 11:01:45;;;;;;;1.70;1.60;;;;;;;22.96;100.00;96722.56;5009018;28;103790;-62
2022/07/05 11:04:32;;;;;;;2.43;1.50;;;;;;;22.93;100.00;96721.28;5023853;28;103995;-61
2022/07/05 11:07:00;;;;;;;1.40;1.30;;;;;;;22.93;100.00;96715.84;5030624;28;101883;-62
2022/07/05 11:09:28;;;;;;;4.13;1.43;;;;;;;22.95;100.00;96716.31;5029097;28;104398;-62
2022/07/05 11:12:14;;;;;;;1.67;1.57;;;;;;;22.88;100.00;96712.53;5029729;28;105967;-62
2022/07/05 11:15:17;;;;;;;1.70;1.40;;;;;;;22.82;100.00;96709.16;5020081;28;102892;-62
2022/07/05 11:17:44;;;;;;;2.40;1.40;;;;;;;22.80;100.00;96708.69;5009929;28;105647;-61
2022/07/05 11:20:26;;;;;;;3.10;1.70;;;;;;;22.68;100.00;96708.50;5013138;28;102171;-62
2022/07/05 11:23:05;;;;;;;3.20;1.70;;;;;;;22.86;100.00;96706.59;5012212;28;103831;-62
2022/07/05 11:25:36;;;;;;;2.20;1.80;;;;;;;22.96;100.00;96706.28;5029570;28;104205;-61
2022/07/05 11:28:18;;;;;;;1.43;1.33;;;;;;;23.18;100.00;96697.97;5014915;28;101821;-63
2022/07/05 11:30:50;;;;;;;2.20;1.60;;;;;;;23.14;100.00;96699.69;5027956;28;102631;-63
2022/07/05 11:33:44;;;;;;;4.60;1.70;;;;;;;23.23;100.00;96692.38;5024813;28;103018;-63
2022/07/05 11:36:26;;;;;;;2.53;1.43;;;;;;;23.33;100.00;96697.47;4990050;28;104526;-64
2022/07/05 11:39:12;;;;;;;4.20;1.87;;;;;;;23.41;100.00;96692.00;4996243;28;102909;-64
2022/07/05 11:41:40;;;;;;;1.73;1.50;;;;;;;23.42;100.00;96687.34;5030149;28;101770;-62
2022/07/05 11:44:08;;;;;;;3.83;1.70;;;;;;;23.39;100.00;96694.25;5016325;28;105586;-63
2022/07/05 11:46:36;;;;;;;6.33;1.70;;;;;;;23.42;100.00;96688.16;5020680;28;103002;-63
2022/07/05 11:49:23;;;;;;;2.10;1.77;;;;;;;23.53;100.00;96692.13;5031159;28;102040;-62
2022/07/05 11:52:01;;;;;;;1.77;1.50;;;;;;;24.33;100.00;96691.09;5020568;28;105463;-62
2022/07/05 11:54:30;;;;;;;1.97;1.73;;;;;;;24.90;100.00;96679.31;5009114;28;105700;-61
2022/07/05 11:56:57;;;;;;;2.37;1.50;;;;;;;25.10;100.00;96677.66;5013934;28;101861;-61
2022/07/05 11:59:26;;;;;;;2.57;1.40;;;;;;;25.31;100.00;96686.59;5023195;28;102649;-62
2022/07/05 12:01:54;;;;;;;1.80;1.70;;;;;;;25.19;100.00;96670.22;5031090;28;101895;-61
2022/07/05 12:04:26;;;;;;;1.40;1.30;;;;;;;24.78;100.00;96676.53;5029873;28;103720;-62
2022/07/05 12:07:01;;;;;;;1.60;1.50;;;;;;;25.21;100.00;96678.84;5010918;27;102783;-61
2022/07/05 12:12:42;;;;;;;1.70;1.60;;;;;;;24.81;100.00;96673.16;5008950;28;102102;-61